Jeppesen Maersk — OWTW2 — position and weather

sailwx.info

Track history (hours):
 
Tides and Currents Weather Stations Pressure Air Temp Water Temp Dewpoint Dewpoint Depression Visibility Wind Speed Wind Dir Waves Ship Positions

Jeppesen Maersk

Last reported at 2014-Jul-24 23:34 UTC. Time now 2014-Aug-02 08:33 UTC.
Position S 33°38' E 151°43'.
Warning: this ship's position is 8 days out of date.

Type: Cargo ship. MMSI: 219953000.

Date/timePositionNaut miles runAvg speedWind from/ knotsBaromVisibWave heightAir tempDewpointWater temp
2014-Jul-24 23:34S 33°38' E 151°43'1514.7
2014-Jul-24 22:33S 33°27' E 151°54'1616.4
2014-Jul-24 21:33S 33°14' E 152°06'1817.9
2014-Jul-24 20:33S 33°00' E 152°20'1818.0
2014-Jul-24 19:33S 32°46' E 152°33'1818.4
2014-Jul-24 18:33S 32°31' E 152°47'1918.9
2014-Jul-24 17:33S 32°14' E 152°54'2019.7
2014-Jul-24 16:33S 31°55' E 153°02'22818.5
2014-Jul-24 04:16S 28°12' E 153°55'1718.7
2014-Jul-24 03:21S 27°55' E 153°54'1518.7
2014-Jul-24 02:33S 27°40' E 153°52'1918.7
2014-Jul-24 01:31S 27°21' E 153°50'1819.2
2014-Jul-24 00:33S 27°02' E 153°48'7719.1
2014-Jul-23 20:30S 25°45' E 153°41'2118.6
2014-Jul-23 19:24S 25°25' E 153°39'  
2014-Jul-15 10:33N 01°14' E 104°00'1312.7
2014-Jul-15 09:33N 01°13' E 103°47'4 4.4
2014-Jul-15 08:33N 01°17' E 103°45'0 0.0
2014-Jul-15 07:33N 01°17' E 103°45'0 0.0
2014-Jul-15 06:33N 01°17' E 103°45'0 0.0
2014-Jul-15 05:24N 01°17' E 103°45'0 0.0
2014-Jul-15 04:30N 01°17' E 103°45'0 0.0
2014-Jul-15 03:09N 01°17' E 103°45'0 0.0
2014-Jul-15 01:24N 01°17' E 103°45'0 0.0
2014-Jul-15 00:15N 01°17' E 103°45'  
Track history (hours):
 
Tides and Currents Weather Stations Pressure Air Temp Water Temp Dewpoint Dewpoint Depression Visibility Wind Speed Wind Dir Waves Ship Positions

Jeppesen Maersk

Last reported at 2014-Jul-24 23:34 UTC. Time now 2014-Aug-02 08:33 UTC.
Position S 33°38' E 151°43'.
Warning: this ship's position is 8 days out of date.

Type: Cargo ship. MMSI: 219953000.

Date/timePositionNaut miles runAvg speedWind from/ knotsBaromVisibWave heightAir tempDewpointWater temp
2014-Jul-24 23:34S 33°38' E 151°43'1514.7
2014-Jul-24 22:33S 33°27' E 151°54'1616.4
2014-Jul-24 21:33S 33°14' E 152°06'1817.9
2014-Jul-24 20:33S 33°00' E 152°20'1818.0
2014-Jul-24 19:33S 32°46' E 152°33'1818.4
2014-Jul-24 18:33S 32°31' E 152°47'1918.9
2014-Jul-24 17:33S 32°14' E 152°54'2019.7
2014-Jul-24 16:33S 31°55' E 153°02'22818.5
2014-Jul-24 04:16S 28°12' E 153°55'1718.7
2014-Jul-24 03:21S 27°55' E 153°54'1518.7
2014-Jul-24 02:33S 27°40' E 153°52'1918.7
2014-Jul-24 01:31S 27°21' E 153°50'1819.2
2014-Jul-24 00:33S 27°02' E 153°48'7719.1
2014-Jul-23 20:30S 25°45' E 153°41'2118.6
2014-Jul-23 19:24S 25°25' E 153°39'  
2014-Jul-15 10:33N 01°14' E 104°00'1312.7
2014-Jul-15 09:33N 01°13' E 103°47'4 4.4
2014-Jul-15 08:33N 01°17' E 103°45'0 0.0
2014-Jul-15 07:33N 01°17' E 103°45'0 0.0
2014-Jul-15 06:33N 01°17' E 103°45'0 0.0
2014-Jul-15 05:24N 01°17' E 103°45'0 0.0
2014-Jul-15 04:30N 01°17' E 103°45'0 0.0
2014-Jul-15 03:09N 01°17' E 103°45'0 0.0
2014-Jul-15 01:24N 01°17' E 103°45'0 0.0
2014-Jul-15 00:15N 01°17' E 103°45'  

Dump ship's entire track history